createdAt,value
2018-10-17T00:00:48.122Z,25.90
2018-10-17T00:03:16.020Z,25.43
2018-10-17T00:05:43.873Z,25.90
2018-10-17T00:08:11.794Z,25.65
2018-10-17T00:10:39.681Z,26.27
2018-10-17T00:13:07.568Z,26.52
2018-10-17T00:15:35.441Z,25.08
2018-10-17T00:18:03.281Z,28.02
2018-10-17T00:20:31.173Z,26.73
2018-10-17T00:22:59.064Z,27.82
2018-10-17T00:25:26.942Z,24.65
2018-10-17T00:27:54.796Z,25.12
2018-10-17T00:30:22.691Z,25.05
2018-10-17T00:32:50.561Z,27.02
2018-10-17T00:35:18.458Z,25.50
2018-10-17T00:37:46.353Z,24.60
2018-10-17T00:40:14.243Z,25.27
2018-10-17T00:42:42.119Z,26.37
2018-10-17T00:45:09.952Z,25.52
2018-10-17T00:47:37.899Z,26.07
2018-10-17T00:50:05.937Z,26.73
2018-10-17T00:52:33.789Z,26.80
2018-10-17T00:55:01.766Z,25.60
2018-10-17T00:57:29.545Z,27.15
2018-10-17T00:59:57.394Z,26.00
2018-10-17T01:02:25.272Z,26.70
2018-10-17T01:04:53.163Z,27.80
2018-10-17T01:07:21.021Z,26.73
2018-10-17T01:09:48.894Z,25.48
2018-10-17T01:12:16.717Z,26.50
2018-10-17T01:14:44.566Z,26.87
2018-10-17T01:17:12.485Z,26.95
2018-10-17T01:19:40.321Z,26.05
2018-10-17T01:22:08.189Z,25.43
2018-10-17T01:24:36.015Z,28.20
2018-10-17T01:27:04.092Z,26.95
2018-10-17T01:29:31.929Z,25.05
2018-10-17T01:31:59.849Z,26.50
2018-10-17T01:34:27.693Z,25.40
2018-10-17T01:36:55.603Z,25.72
2018-10-17T01:39:23.374Z,25.35
2018-10-17T01:41:51.212Z,28.42
2018-10-17T01:44:19.121Z,26.15
2018-10-17T01:46:46.980Z,25.95
2018-10-17T01:49:14.938Z,26.70
2018-10-17T01:51:42.741Z,26.77
2018-10-17T01:54:10.612Z,24.27
2018-10-17T01:56:38.517Z,24.80
2018-10-17T01:59:06.657Z,23.70
2018-10-17T02:01:34.556Z,26.82
2018-10-17T02:04:02.441Z,25.08
2018-10-17T02:06:30.333Z,25.35
2018-10-17T02:08:58.194Z,24.82
2018-10-17T02:11:26.053Z,24.82
2018-10-17T02:13:53.933Z,26.00
2018-10-17T02:16:21.765Z,24.35
2018-10-17T02:18:49.596Z,23.75
2018-10-17T02:21:17.442Z,24.40
2018-10-17T02:23:45.282Z,24.00
2018-10-17T02:26:13.190Z,24.18
2018-10-17T02:28:41.021Z,22.95
2018-10-17T02:31:08.925Z,22.60
2018-10-17T02:33:36.766Z,24.57
2018-10-17T02:36:04.697Z,24.98
2018-10-17T02:38:32.561Z,25.70
2018-10-17T02:41:00.465Z,24.20
2018-10-17T02:43:28.369Z,23.52
2018-10-17T02:45:56.185Z,24.98
2018-10-17T02:48:24.070Z,24.02
2018-10-17T02:50:51.958Z,24.40
2018-10-17T02:53:19.945Z,24.47
2018-10-17T02:55:47.720Z,25.45
2018-10-17T02:58:15.535Z,25.72
2018-10-17T03:00:43.384Z,27.55
2018-10-17T03:03:11.272Z,24.37
2018-10-17T03:05:39.162Z,24.72
2018-10-17T03:08:07.017Z,25.55
2018-10-17T03:10:34.877Z,24.98
2018-10-17T03:13:02.772Z,24.35
2018-10-17T03:15:30.750Z,23.90
2018-10-17T03:17:58.602Z,25.70
2018-10-17T03:20:26.526Z,25.30
2018-10-17T03:22:54.451Z,23.95
2018-10-17T03:25:22.236Z,25.88
2018-10-17T03:27:50.155Z,23.52
2018-10-17T03:30:18.044Z,25.32
2018-10-17T03:32:45.936Z,25.45
2018-10-17T03:35:13.867Z,24.40
2018-10-17T03:37:41.720Z,24.18
2018-10-17T03:40:09.566Z,23.62
2018-10-17T03:42:37.462Z,23.22
2018-10-17T03:45:06.416Z,25.20
2018-10-17T03:47:34.318Z,25.02
2018-10-17T03:50:02.285Z,24.27
2018-10-17T03:52:30.097Z,24.77
2018-10-17T03:54:59.731Z,25.62
2018-10-17T03:57:27.649Z,26.10
2018-10-17T03:59:55.493Z,25.57
2018-10-17T04:02:23.370Z,24.90
2018-10-17T04:04:51.310Z,25.65
2018-10-17T04:07:19.158Z,24.07
2018-10-17T04:09:47.010Z,24.43
2018-10-17T04:12:14.878Z,25.62
2018-10-17T04:14:42.712Z,23.18
2018-10-17T04:17:10.680Z,24.90
2018-10-17T04:19:38.625Z,24.15
2018-10-17T04:22:06.523Z,25.60
2018-10-17T04:24:34.413Z,25.10
2018-10-17T04:27:02.330Z,24.43
2018-10-17T04:29:30.215Z,24.75
2018-10-17T04:31:58.092Z,25.25
2018-10-17T04:34:26.030Z,25.50
2018-10-17T04:36:53.894Z,24.80
2018-10-17T04:39:21.751Z,23.18
2018-10-17T04:41:49.613Z,24.95
2018-10-17T04:44:17.525Z,23.73
2018-10-17T04:46:45.455Z,24.90
2018-10-17T04:49:13.423Z,24.82
2018-10-17T04:51:41.244Z,23.27
2018-10-17T04:54:09.137Z,24.07
2018-10-17T04:56:37.009Z,24.07
2018-10-17T04:59:04.956Z,24.45
2018-10-17T05:01:32.858Z,22.85
2018-10-17T05:04:00.729Z,22.00
2018-10-17T05:06:28.651Z,21.50
2018-10-17T05:08:56.541Z,22.17
2018-10-17T05:11:24.360Z,22.87
2018-10-17T05:13:52.934Z,22.02
2018-10-17T05:16:21.321Z,22.80
2018-10-17T05:18:49.136Z,22.67
2018-10-17T05:21:17.092Z,22.58
2018-10-17T05:23:45.042Z,34.38
2018-10-17T05:26:13.003Z,44.93
2018-10-17T05:28:40.917Z,39.18
2018-10-17T05:31:08.914Z,50.35
2018-10-17T05:33:36.697Z,51.88
2018-10-17T05:36:04.762Z,45.28
2018-10-17T05:38:32.649Z,41.70
2018-10-17T05:41:00.729Z,28.75
2018-10-17T05:43:28.580Z,22.17
2018-10-17T05:45:56.673Z,21.05
2018-10-17T05:48:24.566Z,19.45
2018-10-17T05:50:52.554Z,20.08
2018-10-17T05:53:20.368Z,21.52
2018-10-17T05:55:48.213Z,19.98
2018-10-17T05:58:16.321Z,20.85
2018-10-17T06:00:44.169Z,21.33
2018-10-17T06:03:12.093Z,22.17
2018-10-17T06:05:39.953Z,21.07
2018-10-17T06:08:07.860Z,22.52
2018-10-17T06:10:35.753Z,23.12
2018-10-17T06:13:03.664Z,23.52
2018-10-17T06:15:31.512Z,23.73
2018-10-17T06:17:59.434Z,24.20
2018-10-17T06:20:27.297Z,24.82
2018-10-17T06:22:55.232Z,25.45
2018-10-17T06:25:23.142Z,23.60
2018-10-17T06:27:51.012Z,23.05
2018-10-17T06:30:18.859Z,25.30
2018-10-17T06:32:46.720Z,26.30
2018-10-17T06:35:14.639Z,27.85
2018-10-17T06:37:42.464Z,26.17
2018-10-17T06:40:10.468Z,24.75
2018-10-17T06:42:38.290Z,24.25
2018-10-17T06:45:06.236Z,23.00
2018-10-17T06:47:34.108Z,25.08
2018-10-17T06:50:02.022Z,24.47
2018-10-17T06:52:29.915Z,25.20
2018-10-17T06:54:57.799Z,25.23
2018-10-17T06:57:25.706Z,25.08
2018-10-17T06:59:53.573Z,26.05
2018-10-17T07:02:21.656Z,24.20
2018-10-17T07:04:49.536Z,24.87
2018-10-17T07:07:17.452Z,23.55
2018-10-17T07:09:45.301Z,23.90
2018-10-17T07:12:13.200Z,22.62
2018-10-17T07:14:41.037Z,22.62
2018-10-17T07:17:08.990Z,24.15
2018-10-17T07:19:36.789Z,25.90
2018-10-17T07:22:04.755Z,25.20
2018-10-17T07:24:32.661Z,25.85
2018-10-17T07:27:00.535Z,25.97
2018-10-17T07:29:28.775Z,27.15
2018-10-17T07:31:56.538Z,25.97
2018-10-17T07:34:24.446Z,27.80
2018-10-17T07:36:52.394Z,28.17
2018-10-17T07:39:20.225Z,27.85
2018-10-17T07:41:48.121Z,28.73
2018-10-17T07:44:15.998Z,26.40
2018-10-17T07:46:43.911Z,28.30
2018-10-17T07:49:11.828Z,28.30
2018-10-17T07:51:39.711Z,27.45
2018-10-17T07:54:07.647Z,27.60
2018-10-17T07:56:35.469Z,27.95
2018-10-17T07:59:03.389Z,28.10
2018-10-17T08:01:31.358Z,27.80
2018-10-17T08:03:59.217Z,27.85
2018-10-17T08:06:27.099Z,27.65
2018-10-17T08:08:54.922Z,28.47
2018-10-17T08:11:22.788Z,28.50
2018-10-17T08:13:50.784Z,29.63
2018-10-17T08:16:18.614Z,29.83
2018-10-17T08:18:46.505Z,31.37
2018-10-17T08:21:14.555Z,31.90
2018-10-17T08:23:43.273Z,30.83
2018-10-17T08:26:11.178Z,33.20
2018-10-17T08:28:39.054Z,34.97
2018-10-17T08:31:06.918Z,34.90
2018-10-17T08:33:34.823Z,30.80
2018-10-17T08:36:02.878Z,34.90
2018-10-17T08:38:30.601Z,29.77
2018-10-17T08:40:58.502Z,32.90
2018-10-17T08:43:26.385Z,35.27
2018-10-17T08:45:54.213Z,35.43
2018-10-17T08:48:22.081Z,38.47
2018-10-17T08:50:50.093Z,35.10
2018-10-17T08:53:17.829Z,38.60
2018-10-17T08:55:45.687Z,33.23
2018-10-17T08:58:13.549Z,35.40
2018-10-17T09:00:41.464Z,34.20
2018-10-17T09:03:09.320Z,35.37
2018-10-17T09:05:37.199Z,34.17
2018-10-17T09:08:05.210Z,35.97
2018-10-17T09:10:33.051Z,34.43
2018-10-17T09:13:00.928Z,33.10
2018-10-17T09:15:28.833Z,34.40
2018-10-17T09:17:56.734Z,32.50
2018-10-17T09:20:24.860Z,31.20
2018-10-17T09:22:52.496Z,31.30
2018-10-17T09:25:20.428Z,33.37
2018-10-17T09:27:48.373Z,31.77
2018-10-17T09:30:16.329Z,31.30
2018-10-17T09:32:44.112Z,30.70
2018-10-17T09:35:12.128Z,30.90
2018-10-17T09:37:39.921Z,32.00
2018-10-17T09:40:09.386Z,34.93
2018-10-17T09:42:37.233Z,32.07
2018-10-17T09:45:06.062Z,31.67
2018-10-17T09:47:33.920Z,32.63
2018-10-17T09:50:01.938Z,30.97
2018-10-17T09:52:29.766Z,30.10
2018-10-17T09:54:57.684Z,31.80
2018-10-17T09:57:25.525Z,29.10
2018-10-17T09:59:53.425Z,29.77
2018-10-17T10:02:21.372Z,30.50
2018-10-17T10:04:49.184Z,29.97
2018-10-17T10:07:17.145Z,31.20
2018-10-17T10:09:44.989Z,29.97
2018-10-17T10:12:13.013Z,31.87
2018-10-17T10:14:40.874Z,32.27
2018-10-17T10:17:08.775Z,29.00
2018-10-17T10:19:36.608Z,30.70
2018-10-17T10:22:04.890Z,26.97
2018-10-17T10:24:32.724Z,28.40
2018-10-17T10:27:00.689Z,28.00
2018-10-17T10:29:28.547Z,25.27
2018-10-17T10:31:56.505Z,25.60
2018-10-17T10:34:24.356Z,26.17
2018-10-17T10:36:52.188Z,26.00
2018-10-17T10:39:20.057Z,28.07
2018-10-17T10:41:47.924Z,28.67
2018-10-17T10:44:15.887Z,28.23
2018-10-17T10:46:43.735Z,27.93
2018-10-17T10:49:11.617Z,26.83
2018-10-17T10:51:39.551Z,30.17
2018-10-17T10:54:07.375Z,31.77
2018-10-17T10:56:35.254Z,32.63
2018-10-17T10:59:03.138Z,29.53
2018-10-17T11:01:31.009Z,29.93
2018-10-17T11:03:58.848Z,30.43
2018-10-17T11:06:26.748Z,28.57
2018-10-17T11:08:54.645Z,27.53
2018-10-17T11:11:22.465Z,27.90
2018-10-17T11:13:50.332Z,31.30
2018-10-17T11:16:18.204Z,30.90
2018-10-17T11:18:46.060Z,29.07
2018-10-17T11:21:13.962Z,27.80
2018-10-17T11:23:41.790Z,28.87
2018-10-17T11:26:09.672Z,30.77
2018-10-17T11:28:37.505Z,29.73
2018-10-17T11:31:05.448Z,29.00
2018-10-17T11:33:33.268Z,28.47
2018-10-17T11:36:01.180Z,30.10
2018-10-17T11:38:29.025Z,30.13
2018-10-17T11:40:56.918Z,30.17
2018-10-17T11:43:24.774Z,28.47
2018-10-17T11:45:52.618Z,26.20
2018-10-17T11:48:20.510Z,31.13
2018-10-17T11:50:48.416Z,28.90
2018-10-17T11:53:16.351Z,28.27
2018-10-17T11:55:44.148Z,27.23
2018-10-17T11:58:12.102Z,28.53
2018-10-17T12:00:39.978Z,29.00
2018-10-17T12:03:07.903Z,28.47
2018-10-17T12:05:36.136Z,26.70
2018-10-17T12:08:03.689Z,27.90
2018-10-17T12:10:31.566Z,28.60
2018-10-17T12:12:59.434Z,29.20
2018-10-17T12:15:27.249Z,29.53
2018-10-17T12:17:55.086Z,29.90
2018-10-17T12:20:22.982Z,28.07
2018-10-17T12:22:50.837Z,27.50
2018-10-17T12:25:18.728Z,29.57
2018-10-17T12:27:46.752Z,30.60
2018-10-17T12:30:15.222Z,30.40
2018-10-17T12:32:43.022Z,27.30
2018-10-17T12:35:11.271Z,28.30
2018-10-17T12:37:39.137Z,30.03
2018-10-17T12:40:08.289Z,29.90
2018-10-17T12:42:36.253Z,31.80
2018-10-17T12:45:04.259Z,32.47
2018-10-17T12:47:32.104Z,31.57
2018-10-17T12:50:00.210Z,30.23
2018-10-17T12:52:28.362Z,25.20
2018-10-17T12:54:56.263Z,26.80
2018-10-17T12:57:24.121Z,28.87
2018-10-17T12:59:51.972Z,28.83
2018-10-17T13:02:19.958Z,28.23
2018-10-17T13:04:47.907Z,31.10
2018-10-17T13:07:15.842Z,30.60
2018-10-17T13:09:43.693Z,26.80
2018-10-17T13:12:11.553Z,29.07
2018-10-17T13:14:39.462Z,26.10
2018-10-17T13:17:07.524Z,28.03
2018-10-17T13:19:35.365Z,26.43
2018-10-17T13:22:03.221Z,28.07
2018-10-17T13:24:31.164Z,30.80
2018-10-17T13:26:58.994Z,27.63
2018-10-17T13:29:26.844Z,27.40
2018-10-17T13:31:54.695Z,25.17
2018-10-17T13:34:22.577Z,26.87
2018-10-17T13:36:50.453Z,28.70
2018-10-17T13:39:18.373Z,27.70
2018-10-17T13:41:46.209Z,28.63
2018-10-17T13:44:13.901Z,26.97
2018-10-17T13:46:41.585Z,27.17
2018-10-17T13:49:09.500Z,26.60
2018-10-17T13:51:37.343Z,22.60
2018-10-17T13:54:05.084Z,24.20
2018-10-17T13:56:32.927Z,24.93
2018-10-17T13:59:00.875Z,24.83
2018-10-17T14:01:28.712Z,25.13
2018-10-17T14:03:56.642Z,26.50
2018-10-17T14:06:24.470Z,27.33
2018-10-17T14:08:52.331Z,23.10
2018-10-17T14:11:20.267Z,22.67
2018-10-17T14:13:48.078Z,24.10
2018-10-17T14:16:15.954Z,24.53
2018-10-17T14:18:43.813Z,22.80
2018-10-17T14:21:11.554Z,22.33
2018-10-17T14:23:39.500Z,24.30
2018-10-17T14:26:07.269Z,23.47
2018-10-17T14:28:35.118Z,22.90
2018-10-17T14:31:02.984Z,23.20
2018-10-17T14:33:30.842Z,26.10
2018-10-17T14:35:58.828Z,22.90
2018-10-17T14:38:26.469Z,22.70
2018-10-17T14:40:54.222Z,21.87
2018-10-17T14:43:21.884Z,23.17
2018-10-17T14:45:49.585Z,23.50
2018-10-17T14:48:17.412Z,21.17
2018-10-17T14:50:45.202Z,21.40
2018-10-17T14:53:13.168Z,20.50
2018-10-17T14:55:41.039Z,20.77
2018-10-17T14:58:08.917Z,23.30
2018-10-17T15:00:36.852Z,22.10
2018-10-17T15:03:04.973Z,19.07
2018-10-17T15:05:32.899Z,19.33
2018-10-17T15:08:00.799Z,18.50
2018-10-17T15:10:28.675Z,18.80
2018-10-17T15:12:56.798Z,19.13
2018-10-17T15:15:24.648Z,22.87
2018-10-17T15:17:52.560Z,21.97
2018-10-17T15:20:20.450Z,21.53
2018-10-17T15:22:48.378Z,21.50
2018-10-17T15:25:16.209Z,21.10
2018-10-17T15:27:44.094Z,19.70
2018-10-17T15:30:12.117Z,20.50
2018-10-17T15:32:39.961Z,21.10
2018-10-17T15:35:08.158Z,20.00
2018-10-17T15:37:36.062Z,19.17
2018-10-17T15:40:04.022Z,19.40
2018-10-17T15:42:31.887Z,19.63
2018-10-17T15:44:59.740Z,19.47
2018-10-17T15:47:27.624Z,20.20
2018-10-17T15:49:55.476Z,20.30
2018-10-17T15:52:23.385Z,20.00
2018-10-17T15:54:51.281Z,20.13
2018-10-17T15:57:19.130Z,19.13
2018-10-17T15:59:47.012Z,22.20
2018-10-17T16:02:14.922Z,23.57
2018-10-17T16:04:42.772Z,23.70
2018-10-17T16:07:10.644Z,22.00
2018-10-17T16:09:38.495Z,23.80
2018-10-17T16:12:06.425Z,22.97
2018-10-17T16:14:34.292Z,23.33
2018-10-17T16:17:02.231Z,23.00
2018-10-17T16:19:30.073Z,23.90
2018-10-17T16:21:57.941Z,24.83
2018-10-17T16:24:25.790Z,37.20
2018-10-17T16:26:53.679Z,38.67
2018-10-17T16:29:21.588Z,34.70
2018-10-17T16:31:49.596Z,39.40
2018-10-17T16:34:17.426Z,38.03
2018-10-17T16:36:45.426Z,36.00
2018-10-17T16:39:13.135Z,34.00
2018-10-17T16:41:40.965Z,36.67
2018-10-17T16:44:08.856Z,31.90
2018-10-17T16:46:37.054Z,28.40
2018-10-17T16:49:05.308Z,26.70
2018-10-17T16:51:33.228Z,25.50
2018-10-17T16:54:01.149Z,24.63
2018-10-17T16:56:29.041Z,31.80
2018-10-17T16:58:56.911Z,31.40
2018-10-17T17:01:24.803Z,31.73
2018-10-17T17:03:52.625Z,30.70
2018-10-17T17:06:20.468Z,32.43
2018-10-17T17:08:48.341Z,30.70
2018-10-17T17:11:16.961Z,30.33
2018-10-17T17:13:44.821Z,26.70
2018-10-17T17:16:12.745Z,25.63
2018-10-17T17:18:40.621Z,25.90
2018-10-17T17:21:08.630Z,23.53
2018-10-17T17:23:36.440Z,24.07
2018-10-17T17:26:04.401Z,24.30
2018-10-17T17:28:32.256Z,24.17
2018-10-17T17:31:00.141Z,22.93
2018-10-17T17:33:28.025Z,26.40
2018-10-17T17:35:55.878Z,24.37
2018-10-17T17:38:30.573Z,24.17
2018-10-17T17:40:58.443Z,22.27
2018-10-17T17:43:26.361Z,22.83
2018-10-17T17:45:55.221Z,23.50
2018-10-17T17:48:23.087Z,23.80
2018-10-17T17:50:51.000Z,22.40
2018-10-17T17:53:18.869Z,22.23
2018-10-17T17:55:46.704Z,20.97
2018-10-17T17:58:14.575Z,20.80
2018-10-17T18:00:42.467Z,22.03
2018-10-17T18:03:10.638Z,22.03
2018-10-17T18:05:38.532Z,23.80
2018-10-17T18:08:06.510Z,24.83
2018-10-17T18:10:34.348Z,28.97
2018-10-17T18:13:02.221Z,28.97
2018-10-17T18:15:30.068Z,27.90
2018-10-17T18:17:57.933Z,26.60
2018-10-17T18:20:25.774Z,27.00
2018-10-17T18:22:53.663Z,26.10
2018-10-17T18:25:21.526Z,24.73
2018-10-17T18:27:50.029Z,24.40
2018-10-17T18:30:17.888Z,26.10
2018-10-17T18:32:45.701Z,24.70
2018-10-17T18:35:13.536Z,25.37
2018-10-17T18:37:41.396Z,26.00
2018-10-17T18:40:09.313Z,25.67
2018-10-17T18:42:37.181Z,26.03
2018-10-17T18:45:05.512Z,24.67
2018-10-17T18:47:33.362Z,23.30
2018-10-17T18:50:01.216Z,23.37
2018-10-17T18:52:29.076Z,24.67
2018-10-17T18:54:56.896Z,23.87
2018-10-17T18:57:24.785Z,23.03
2018-10-17T18:59:52.663Z,25.97
2018-10-17T19:02:20.589Z,24.80
2018-10-17T19:04:48.457Z,30.90
2018-10-17T19:07:16.337Z,30.13
2018-10-17T19:09:44.236Z,29.90
2018-10-17T19:12:12.110Z,29.63
2018-10-17T19:14:39.952Z,28.70
2018-10-17T19:17:07.816Z,28.63
2018-10-17T19:19:35.685Z,28.57
2018-10-17T19:22:04.087Z,32.80
2018-10-17T19:24:32.007Z,36.53
2018-10-17T19:26:59.903Z,32.70
2018-10-17T19:29:27.904Z,31.80
2018-10-17T19:31:55.788Z,34.07
2018-10-17T19:34:23.701Z,32.20
2018-10-17T19:36:51.537Z,34.67
2018-10-17T19:39:19.517Z,32.57
2018-10-17T19:41:47.358Z,33.10
2018-10-17T19:44:15.232Z,31.57
2018-10-17T19:46:43.117Z,30.33
2018-10-17T19:49:10.962Z,30.40
2018-10-17T19:51:38.785Z,29.00
2018-10-17T19:54:06.993Z,29.23
2018-10-17T19:56:34.873Z,29.00
2018-10-17T19:59:02.700Z,27.53
2018-10-17T20:01:30.640Z,27.57
2018-10-17T20:03:58.485Z,28.23
2018-10-17T20:06:26.317Z,33.30
2018-10-17T20:08:54.197Z,33.17
2018-10-17T20:11:22.402Z,32.20
2018-10-17T20:13:50.294Z,29.70
2018-10-17T20:16:18.213Z,28.73
2018-10-17T20:18:46.057Z,26.02
2018-10-17T20:21:13.996Z,23.10
2018-10-17T20:23:41.834Z,24.95
2018-10-17T20:26:10.278Z,28.60
2018-10-17T20:28:38.189Z,25.92
2018-10-17T20:31:06.021Z,27.85
2018-10-17T20:33:33.913Z,27.48
2018-10-17T20:36:01.801Z,27.67
2018-10-17T20:38:29.669Z,29.10
2018-10-17T20:40:57.561Z,28.30
2018-10-17T20:43:25.837Z,30.08
2018-10-17T20:45:53.721Z,28.45
2018-10-17T20:48:21.625Z,28.62
2018-10-17T20:50:49.508Z,35.75
2018-10-17T20:53:17.401Z,34.60
2018-10-17T20:55:45.313Z,38.60
2018-10-17T20:58:13.408Z,35.35
2018-10-17T21:00:41.361Z,34.85
2018-10-17T21:03:09.289Z,29.15
2018-10-17T21:05:37.138Z,28.98
2018-10-17T21:08:05.087Z,31.02
2018-10-17T21:10:32.897Z,29.82
2018-10-17T21:13:00.965Z,28.92
2018-10-17T21:15:28.833Z,28.70
2018-10-17T21:17:56.713Z,30.20
2018-10-17T21:20:24.590Z,30.65
2018-10-17T21:22:52.428Z,28.02
2018-10-17T21:25:20.337Z,28.35
2018-10-17T21:27:48.216Z,25.92
2018-10-17T21:30:16.057Z,26.00
2018-10-17T21:32:43.902Z,26.77
2018-10-17T21:35:11.781Z,27.17
2018-10-17T21:37:39.712Z,27.17
2018-10-17T21:40:07.582Z,26.68
2018-10-17T21:42:35.476Z,27.17
2018-10-17T21:45:03.381Z,30.68
2018-10-17T21:47:31.346Z,28.38
2018-10-17T21:49:59.210Z,29.55
2018-10-17T21:52:27.050Z,28.45
2018-10-17T21:54:54.924Z,28.85
2018-10-17T21:57:22.793Z,28.83
2018-10-17T21:59:50.652Z,30.15
2018-10-17T22:02:18.589Z,30.02
2018-10-17T22:04:46.456Z,30.25
2018-10-17T22:12:55.494Z,27.77
2018-10-17T22:15:23.159Z,28.87
2018-10-17T22:17:50.849Z,30.10
2018-10-17T22:20:18.533Z,31.12
2018-10-17T22:22:46.234Z,31.02
2018-10-17T22:25:13.902Z,32.75
2018-10-17T22:27:41.564Z,29.35
2018-10-17T22:30:09.364Z,28.95
2018-10-17T22:32:36.944Z,32.45
2018-10-17T22:35:05.058Z,30.43
2018-10-17T22:37:32.729Z,26.00
2018-10-17T22:40:00.425Z,25.45
2018-10-17T22:42:28.091Z,24.10
2018-10-17T22:44:55.762Z,27.82
2018-10-17T22:47:23.504Z,28.90
2018-10-17T22:49:51.207Z,46.15
2018-10-17T22:52:18.856Z,41.33
2018-10-17T22:54:46.581Z,35.17
2018-10-17T22:57:14.269Z,36.23
2018-10-17T22:59:41.986Z,38.98
2018-10-17T23:02:09.801Z,35.83
2018-10-17T23:04:37.442Z,38.73
2018-10-17T23:07:05.600Z,34.33
2018-10-17T23:09:33.332Z,36.75
2018-10-17T23:12:01.064Z,33.55
2018-10-17T23:14:28.741Z,36.88
2018-10-17T23:16:56.424Z,36.95
2018-10-17T23:19:24.105Z,34.25
2018-10-17T23:21:51.768Z,50.28
2018-10-17T23:24:20.258Z,41.15
2018-10-17T23:26:47.944Z,37.20
2018-10-17T23:29:15.613Z,60.63
2018-10-17T23:31:43.282Z,86.17
2018-10-17T23:34:10.953Z,39.60
2018-10-17T23:36:38.620Z,40.45
2018-10-17T23:39:07.980Z,41.45
2018-10-17T23:41:35.690Z,38.35
2018-10-17T23:44:03.490Z,53.65
2018-10-17T23:46:31.145Z,50.25
2018-10-17T23:48:58.788Z,42.45
2018-10-17T23:51:26.466Z,34.65
2018-10-17T23:53:54.143Z,29.60
2018-10-17T23:56:21.813Z,27.70
2018-10-17T23:58:49.516Z,31.05
